sensor_id;sensor_type;location;lat;lon;timestamp;pressure;altitude;pressure_sealevel;temperature;humidity
9187;BME280;7273;48.902;9.410;2024-03-22T00:01:54;98734.41;;;8.98;68.05
9187;BME280;7273;48.902;9.410;2024-03-22T00:04:20;98740.53;;;8.94;68.03
9187;BME280;7273;48.902;9.410;2024-03-22T00:06:47;98733.19;;;8.89;68.07
9187;BME280;7273;48.902;9.410;2024-03-22T00:09:14;98724.53;;;8.87;68.58
9187;BME280;7273;48.902;9.410;2024-03-22T00:11:40;98735.00;;;8.84;68.40
9187;BME280;7273;48.902;9.410;2024-03-22T00:14:07;98722.50;;;8.78;68.25
9187;BME280;7273;48.902;9.410;2024-03-22T00:16:33;98722.75;;;8.76;68.63
9187;BME280;7273;48.902;9.410;2024-03-22T00:18:58;98723.00;;;8.75;68.82
9187;BME280;7273;48.902;9.410;2024-03-22T00:21:24;98717.53;;;8.70;68.60
9187;BME280;7273;48.902;9.410;2024-03-22T00:23:50;98711.81;;;8.66;68.56
9187;BME280;7273;48.902;9.410;2024-03-22T00:26:15;98709.13;;;8.66;68.38
9187;BME280;7273;48.902;9.410;2024-03-22T00:28:41;98719.66;;;8.68;68.56
9187;BME280;7273;48.902;9.410;2024-03-22T00:31:09;98715.28;;;8.62;68.39
9187;BME280;7273;48.902;9.410;2024-03-22T00:33:35;98709.81;;;8.57;68.74
9187;BME280;7273;48.902;9.410;2024-03-22T00:36:01;98713.00;;;8.54;68.74
9187;BME280;7273;48.902;9.410;2024-03-22T00:38:27;98713.75;;;8.49;68.53
9187;BME280;7273;48.902;9.410;2024-03-22T00:40:53;98717.16;;;8.45;68.55
9187;BME280;7273;48.902;9.410;2024-03-22T00:43:20;98724.13;;;8.41;69.23
9187;BME280;7273;48.902;9.410;2024-03-22T00:45:46;98718.81;;;8.29;69.43
9187;BME280;7273;48.902;9.410;2024-03-22T00:48:11;98716.63;;;8.26;69.50
9187;BME280;7273;48.902;9.410;2024-03-22T00:50:37;98706.94;;;8.13;69.43
9187;BME280;7273;48.902;9.410;2024-03-22T00:53:03;98696.66;;;8.10;69.45
9187;BME280;7273;48.902;9.410;2024-03-22T00:55:30;98696.41;;;8.12;69.59
9187;BME280;7273;48.902;9.410;2024-03-22T00:57:56;98687.19;;;8.08;69.45
9187;BME280;7273;48.902;9.410;2024-03-22T01:00:23;98689.91;;;8.08;69.66
9187;BME280;7273;48.902;9.410;2024-03-22T01:02:50;98681.47;;;8.04;69.46
9187;BME280;7273;48.902;9.410;2024-03-22T01:05:17;98673.41;;;8.04;69.79
9187;BME280;7273;48.902;9.410;2024-03-22T01:07:43;98674.31;;;8.10;69.67
9187;BME280;7273;48.902;9.410;2024-03-22T01:10:10;98670.22;;;8.07;69.49
9187;BME280;7273;48.902;9.410;2024-03-22T01:12:36;98656.81;;;8.12;69.37
9187;BME280;7273;48.902;9.410;2024-03-22T01:15:03;98663.28;;;8.11;69.11
9187;BME280;7273;48.902;9.410;2024-03-22T01:17:28;98656.00;;;8.12;69.84
9187;BME280;7273;48.902;9.410;2024-03-22T01:19:54;98662.72;;;8.09;69.44
9187;BME280;7273;48.902;9.410;2024-03-22T01:22:20;98663.78;;;8.08;69.54
9187;BME280;7273;48.902;9.410;2024-03-22T01:24:45;98663.19;;;8.06;69.21
9187;BME280;7273;48.902;9.410;2024-03-22T01:27:11;98658.31;;;8.03;69.17
9187;BME280;7273;48.902;9.410;2024-03-22T01:29:37;98650.44;;;8.02;69.42
9187;BME280;7273;48.902;9.410;2024-03-22T01:32:03;98643.53;;;8.06;69.69
9187;BME280;7273;48.902;9.410;2024-03-22T01:34:29;98641.25;;;7.98;69.88
9187;BME280;7273;48.902;9.410;2024-03-22T01:36:54;98642.06;;;7.98;69.43
9187;BME280;7273;48.902;9.410;2024-03-22T01:39:20;98652.84;;;7.98;69.79
9187;BME280;7273;48.902;9.410;2024-03-22T01:41:47;98660.59;;;7.95;69.33
9187;BME280;7273;48.902;9.410;2024-03-22T01:44:13;98661.38;;;7.95;69.42
9187;BME280;7273;48.902;9.410;2024-03-22T01:46:40;98664.91;;;7.96;69.67
9187;BME280;7273;48.902;9.410;2024-03-22T01:49:12;98661.56;;;7.89;69.31
9187;BME280;7273;48.902;9.410;2024-03-22T01:51:42;98652.94;;;7.87;69.48
9187;BME280;7273;48.902;9.410;2024-03-22T01:54:11;98657.97;;;7.83;69.60
9187;BME280;7273;48.902;9.410;2024-03-22T01:56:37;98643.03;;;7.76;69.67
9187;BME280;7273;48.902;9.410;2024-03-22T01:59:04;98643.75;;;7.71;69.24
9187;BME280;7273;48.902;9.410;2024-03-22T02:01:30;98645.88;;;7.69;69.68
9187;BME280;7273;48.902;9.410;2024-03-22T02:03:56;98638.53;;;7.65;69.48
9187;BME280;7273;48.902;9.410;2024-03-22T02:06:21;98634.47;;;7.62;70.02
9187;BME280;7273;48.902;9.410;2024-03-22T02:08:47;98629.88;;;7.63;69.51
9187;BME280;7273;48.902;9.410;2024-03-22T02:11:13;98625.47;;;7.57;69.63
9187;BME280;7273;48.902;9.410;2024-03-22T02:13:39;98620.59;;;7.54;70.22
9187;BME280;7273;48.902;9.410;2024-03-22T02:16:05;98623.03;;;7.55;69.98
9187;BME280;7273;48.902;9.410;2024-03-22T02:18:31;98622.13;;;7.50;69.81
9187;BME280;7273;48.902;9.410;2024-03-22T02:20:57;98613.16;;;7.44;69.64
9187;BME280;7273;48.902;9.410;2024-03-22T02:23:43;98621.97;;;7.40;69.45
9187;BME280;7273;48.902;9.410;2024-03-22T02:26:08;98617.38;;;7.40;69.62
9187;BME280;7273;48.902;9.410;2024-03-22T02:28:35;98614.59;;;7.35;70.34
9187;BME280;7273;48.902;9.410;2024-03-22T02:31:02;98616.16;;;7.31;70.01
9187;BME280;7273;48.902;9.410;2024-03-22T02:33:28;98608.78;;;7.27;70.05
9187;BME280;7273;48.902;9.410;2024-03-22T02:35:54;98615.25;;;7.26;70.14
9187;BME280;7273;48.902;9.410;2024-03-22T02:38:20;98604.16;;;7.22;69.99
9187;BME280;7273;48.902;9.410;2024-03-22T02:40:47;98607.06;;;7.21;69.74
9187;BME280;7273;48.902;9.410;2024-03-22T02:43:13;98603.56;;;7.20;70.43
9187;BME280;7273;48.902;9.410;2024-03-22T02:45:38;98602.19;;;7.18;69.98
9187;BME280;7273;48.902;9.410;2024-03-22T02:48:04;98593.53;;;7.16;69.92
9187;BME280;7273;48.902;9.410;2024-03-22T02:50:37;98594.69;;;7.20;70.08
9187;BME280;7273;48.902;9.410;2024-03-22T02:53:03;98598.66;;;7.17;70.44
9187;BME280;7273;48.902;9.410;2024-03-22T02:55:29;98593.03;;;7.02;70.33
9187;BME280;7273;48.902;9.410;2024-03-22T02:57:56;98581.69;;;7.00;70.61
9187;BME280;7273;48.902;9.410;2024-03-22T03:00:23;98582.59;;;7.06;70.67
9187;BME280;7273;48.902;9.410;2024-03-22T03:02:50;98577.31;;;7.11;70.29
9187;BME280;7273;48.902;9.410;2024-03-22T03:05:15;98575.84;;;7.03;70.03
9187;BME280;7273;48.902;9.410;2024-03-22T03:07:40;98576.31;;;7.00;70.68
9187;BME280;7273;48.902;9.410;2024-03-22T03:10:06;98570.94;;;7.00;70.13
9187;BME280;7273;48.902;9.410;2024-03-22T03:12:32;98575.50;;;7.00;70.26
9187;BME280;7273;48.902;9.410;2024-03-22T03:14:57;98574.56;;;6.94;70.48
9187;BME280;7273;48.902;9.410;2024-03-22T03:17:23;98569.44;;;6.93;70.29
9187;BME280;7273;48.902;9.410;2024-03-22T03:19:48;98572.63;;;6.90;70.27
9187;BME280;7273;48.902;9.410;2024-03-22T03:22:14;98568.31;;;6.89;70.14
9187;BME280;7273;48.902;9.410;2024-03-22T03:24:39;98573.00;;;6.81;70.46
9187;BME280;7273;48.902;9.410;2024-03-22T03:27:05;98569.25;;;6.82;70.78
9187;BME280;7273;48.902;9.410;2024-03-22T03:29:30;98575.19;;;6.84;70.45
9187;BME280;7273;48.902;9.410;2024-03-22T03:31:55;98569.97;;;6.78;70.63
9187;BME280;7273;48.902;9.410;2024-03-22T03:34:21;98571.38;;;6.80;70.73
9187;BME280;7273;48.902;9.410;2024-03-22T03:36:47;98561.66;;;6.79;70.89
9187;BME280;7273;48.902;9.410;2024-03-22T03:39:12;98559.69;;;6.75;70.57
9187;BME280;7273;48.902;9.410;2024-03-22T03:41:38;98557.00;;;6.75;70.29
9187;BME280;7273;48.902;9.410;2024-03-22T03:44:04;98558.88;;;6.74;70.66
9187;BME280;7273;48.902;9.410;2024-03-22T03:46:29;98551.53;;;6.70;71.06
9187;BME280;7273;48.902;9.410;2024-03-22T03:48:55;98558.56;;;6.71;70.72
9187;BME280;7273;48.902;9.410;2024-03-22T03:51:20;98561.72;;;6.68;70.59
9187;BME280;7273;48.902;9.410;2024-03-22T03:53:45;98568.72;;;6.69;70.67
9187;BME280;7273;48.902;9.410;2024-03-22T03:56:11;98565.81;;;6.70;70.56
9187;BME280;7273;48.902;9.410;2024-03-22T03:58:36;98567.09;;;6.68;71.08
9187;BME280;7273;48.902;9.410;2024-03-22T04:01:07;98561.28;;;6.59;70.46
9187;BME280;7273;48.902;9.410;2024-03-22T04:03:33;98558.03;;;6.57;71.10
9187;BME280;7273;48.902;9.410;2024-03-22T04:05:58;98554.28;;;6.58;71.12
9187;BME280;7273;48.902;9.410;2024-03-22T04:08:27;98555.56;;;6.56;71.18
9187;BME280;7273;48.902;9.410;2024-03-22T04:10:53;98555.09;;;6.59;71.10
9187;BME280;7273;48.902;9.410;2024-03-22T04:13:21;98554.16;;;6.53;71.09
9187;BME280;7273;48.902;9.410;2024-03-22T04:15:46;98551.13;;;6.50;71.28
9187;BME280;7273;48.902;9.410;2024-03-22T04:18:12;98550.91;;;6.51;71.21
9187;BME280;7273;48.902;9.410;2024-03-22T04:20:37;98546.59;;;6.50;71.08
9187;BME280;7273;48.902;9.410;2024-03-22T04:23:02;98549.84;;;6.52;71.31
9187;BME280;7273;48.902;9.410;2024-03-22T04:25:28;98547.75;;;6.54;71.17
9187;BME280;7273;48.902;9.410;2024-03-22T04:27:53;98549.47;;;6.60;70.96
9187;BME280;7273;48.902;9.410;2024-03-22T04:30:19;98555.34;;;6.57;71.11
9187;BME280;7273;48.902;9.410;2024-03-22T04:32:46;98559.78;;;6.52;71.43
9187;BME280;7273;48.902;9.410;2024-03-22T04:35:11;98557.91;;;6.52;70.89
9187;BME280;7273;48.902;9.410;2024-03-22T04:37:36;98553.91;;;6.55;71.23
9187;BME280;7273;48.902;9.410;2024-03-22T04:40:02;98559.53;;;6.53;71.18
9187;BME280;7273;48.902;9.410;2024-03-22T04:42:28;98558.75;;;6.53;71.34
9187;BME280;7273;48.902;9.410;2024-03-22T04:44:53;98566.31;;;6.56;71.25
9187;BME280;7273;48.902;9.410;2024-03-22T04:47:18;98560.38;;;6.54;71.26
9187;BME280;7273;48.902;9.410;2024-03-22T04:49:44;98569.00;;;6.56;70.79
9187;BME280;7273;48.902;9.410;2024-03-22T04:52:09;98563.97;;;6.59;71.01
9187;BME280;7273;48.902;9.410;2024-03-22T04:54:34;98568.28;;;6.60;71.39
9187;BME280;7273;48.902;9.410;2024-03-22T04:57:00;98561.41;;;6.64;70.71
9187;BME280;7273;48.902;9.410;2024-03-22T04:59:25;98557.28;;;6.62;71.56
9187;BME280;7273;48.902;9.410;2024-03-22T05:01:50;98560.09;;;6.67;71.02
9187;BME280;7273;48.902;9.410;2024-03-22T05:04:16;98559.03;;;6.68;71.22
9187;BME280;7273;48.902;9.410;2024-03-22T05:06:41;98559.13;;;6.73;71.19
9187;BME280;7273;48.902;9.410;2024-03-22T05:09:07;98557.59;;;6.77;70.96
9187;BME280;7273;48.902;9.410;2024-03-22T05:11:35;98552.47;;;6.75;71.16
9187;BME280;7273;48.902;9.410;2024-03-22T05:14:00;98561.66;;;6.79;71.29
9187;BME280;7273;48.902;9.410;2024-03-22T05:16:26;98551.75;;;6.80;70.74
9187;BME280;7273;48.902;9.410;2024-03-22T05:18:51;98553.34;;;6.81;70.82
9187;BME280;7273;48.902;9.410;2024-03-22T05:21:16;98556.38;;;6.84;70.78
9187;BME280;7273;48.902;9.410;2024-03-22T05:23:42;98551.84;;;6.85;71.19
9187;BME280;7273;48.902;9.410;2024-03-22T05:26:07;98554.19;;;6.81;71.50
9187;BME280;7273;48.902;9.410;2024-03-22T05:28:33;98548.09;;;6.86;71.24
9187;BME280;7273;48.902;9.410;2024-03-22T05:30:58;98543.78;;;6.85;70.74
9187;BME280;7273;48.902;9.410;2024-03-22T05:33:24;98538.25;;;6.92;70.93
9187;BME280;7273;48.902;9.410;2024-03-22T05:35:49;98549.00;;;6.92;70.99
9187;BME280;7273;48.902;9.410;2024-03-22T05:38:15;98544.59;;;6.86;71.51
9187;BME280;7273;48.902;9.410;2024-03-22T05:40:40;98531.47;;;6.89;70.88
9187;BME280;7273;48.902;9.410;2024-03-22T05:43:05;98531.31;;;6.96;71.33
9187;BME280;7273;48.902;9.410;2024-03-22T05:45:31;98527.50;;;6.92;71.32
9187;BME280;7273;48.902;9.410;2024-03-22T05:47:56;98525.72;;;6.97;71.39
9187;BME280;7273;48.902;9.410;2024-03-22T05:50:22;98528.00;;;7.05;71.20
9187;BME280;7273;48.902;9.410;2024-03-22T05:52:47;98524.00;;;7.08;71.48
9187;BME280;7273;48.902;9.410;2024-03-22T05:55:13;98522.72;;;7.10;71.23
9187;BME280;7273;48.902;9.410;2024-03-22T05:57:38;98528.66;;;7.12;71.09
9187;BME280;7273;48.902;9.410;2024-03-22T06:00:05;98517.19;;;7.17;71.63
9187;BME280;7273;48.902;9.410;2024-03-22T06:02:32;98525.25;;;7.17;71.19
9187;BME280;7273;48.902;9.410;2024-03-22T06:04:58;98515.63;;;7.21;71.04
9187;BME280;7273;48.902;9.410;2024-03-22T06:07:23;98508.72;;;7.25;71.38
9187;BME280;7273;48.902;9.410;2024-03-22T06:09:49;98512.28;;;7.30;70.94
9187;BME280;7273;48.902;9.410;2024-03-22T06:12:15;98517.91;;;7.29;71.18
9187;BME280;7273;48.902;9.410;2024-03-22T06:14:41;98517.13;;;7.28;70.96
9187;BME280;7273;48.902;9.410;2024-03-22T06:17:08;98511.00;;;7.33;70.98
9187;BME280;7273;48.902;9.410;2024-03-22T06:19:34;98506.50;;;7.38;71.08
9187;BME280;7273;48.902;9.410;2024-03-22T06:22:00;98509.19;;;7.38;70.99
9187;BME280;7273;48.902;9.410;2024-03-22T06:24:25;98509.25;;;7.43;70.99
9187;BME280;7273;48.902;9.410;2024-03-22T06:26:50;98505.44;;;7.39;71.26
9187;BME280;7273;48.902;9.410;2024-03-22T06:29:16;98514.19;;;7.46;71.18
9187;BME280;7273;48.902;9.410;2024-03-22T06:31:42;98508.06;;;7.51;71.63
9187;BME280;7273;48.902;9.410;2024-03-22T06:34:08;98500.84;;;7.56;71.79
9187;BME280;7273;48.902;9.410;2024-03-22T06:36:33;98507.63;;;7.59;71.17
9187;BME280;7273;48.902;9.410;2024-03-22T06:38:59;98504.19;;;7.63;71.54
9187;BME280;7273;48.902;9.410;2024-03-22T06:41:25;98493.75;;;7.67;71.58
9187;BME280;7273;48.902;9.410;2024-03-22T06:43:51;98500.66;;;7.79;71.64
9187;BME280;7273;48.902;9.410;2024-03-22T06:46:17;98492.75;;;8.11;71.51
9187;BME280;7273;48.902;9.410;2024-03-22T06:48:42;98493.66;;;8.38;71.78
9187;BME280;7273;48.902;9.410;2024-03-22T06:51:08;98487.94;;;8.56;72.47
9187;BME280;7273;48.902;9.410;2024-03-22T06:53:33;98495.94;;;8.73;73.01
9187;BME280;7273;48.902;9.410;2024-03-22T06:55:59;98497.47;;;8.90;73.52
9187;BME280;7273;48.902;9.410;2024-03-22T06:58:24;98504.69;;;9.11;73.41
9187;BME280;7273;48.902;9.410;2024-03-22T07:00:50;98492.97;;;9.27;73.23
9187;BME280;7273;48.902;9.410;2024-03-22T07:03:15;98498.25;;;9.49;73.51
9187;BME280;7273;48.902;9.410;2024-03-22T07:05:42;98504.28;;;9.61;72.67
9187;BME280;7273;48.902;9.410;2024-03-22T07:08:07;98493.13;;;9.89;72.24
9187;BME280;7273;48.902;9.410;2024-03-22T07:10:32;98499.19;;;10.06;71.31
9187;BME280;7273;48.902;9.410;2024-03-22T07:12:58;98486.84;;;10.20;70.91
9187;BME280;7273;48.902;9.410;2024-03-22T07:15:24;98486.06;;;10.30;70.54
9187;BME280;7273;48.902;9.410;2024-03-22T07:17:50;98481.47;;;10.30;70.32
9187;BME280;7273;48.902;9.410;2024-03-22T07:20:16;98483.38;;;10.35;70.53
9187;BME280;7273;48.902;9.410;2024-03-22T07:22:42;98473.97;;;10.47;70.95
9187;BME280;7273;48.902;9.410;2024-03-22T07:25:07;98472.13;;;10.63;71.10
9187;BME280;7273;48.902;9.410;2024-03-22T07:27:36;98469.44;;;10.68;70.50
9187;BME280;7273;48.902;9.410;2024-03-22T07:30:02;98474.84;;;10.68;70.16
9187;BME280;7273;48.902;9.410;2024-03-22T07:32:28;98466.72;;;10.68;70.17
9187;BME280;7273;48.902;9.410;2024-03-22T07:34:54;98460.78;;;10.76;70.08
9187;BME280;7273;48.902;9.410;2024-03-22T07:37:19;98461.31;;;10.73;70.28
9187;BME280;7273;48.902;9.410;2024-03-22T07:39:45;98455.94;;;10.83;70.04
9187;BME280;7273;48.902;9.410;2024-03-22T07:42:11;98454.59;;;10.91;70.31
9187;BME280;7273;48.902;9.410;2024-03-22T07:44:36;98452.44;;;10.98;70.44
9187;BME280;7273;48.902;9.410;2024-03-22T07:47:01;98453.50;;;11.02;70.45
9187;BME280;7273;48.902;9.410;2024-03-22T07:49:27;98453.25;;;11.23;70.40
9187;BME280;7273;48.902;9.410;2024-03-22T07:51:52;98451.09;;;11.35;70.09
9187;BME280;7273;48.902;9.410;2024-03-22T07:54:18;98447.00;;;11.53;69.68
9187;BME280;7273;48.902;9.410;2024-03-22T07:56:43;98446.72;;;11.59;69.55
9187;BME280;7273;48.902;9.410;2024-03-22T07:59:09;98454.59;;;11.71;69.50
9187;BME280;7273;48.902;9.410;2024-03-22T08:01:34;98452.16;;;11.74;69.49
9187;BME280;7273;48.902;9.410;2024-03-22T08:04:00;98452.66;;;11.91;69.40
9187;BME280;7273;48.902;9.410;2024-03-22T08:06:25;98456.72;;;11.94;69.76
9187;BME280;7273;48.902;9.410;2024-03-22T08:08:51;98455.56;;;12.15;68.98
9187;BME280;7273;48.902;9.410;2024-03-22T08:11:16;98452.28;;;12.23;68.83
9187;BME280;7273;48.902;9.410;2024-03-22T08:13:41;98455.88;;;12.62;68.54
9187;BME280;7273;48.902;9.410;2024-03-22T08:16:07;98457.50;;;12.68;68.29
9187;BME280;7273;48.902;9.410;2024-03-22T08:18:32;98447.06;;;12.85;67.97
9187;BME280;7273;48.902;9.410;2024-03-22T08:20:58;98444.38;;;12.80;67.98
9187;BME280;7273;48.902;9.410;2024-03-22T08:23:24;98455.72;;;12.92;67.92
9187;BME280;7273;48.902;9.410;2024-03-22T08:25:49;98455.69;;;12.97;68.16
9187;BME280;7273;48.902;9.410;2024-03-22T08:28:15;98451.28;;;13.06;68.30
9187;BME280;7273;48.902;9.410;2024-03-22T08:30:41;98449.56;;;13.20;68.13
9187;BME280;7273;48.902;9.410;2024-03-22T08:33:10;98447.59;;;13.26;68.20
9187;BME280;7273;48.902;9.410;2024-03-22T08:35:36;98443.16;;;13.40;68.47
9187;BME280;7273;48.902;9.410;2024-03-22T08:38:01;98439.06;;;13.37;68.09
9187;BME280;7273;48.902;9.410;2024-03-22T08:40:28;98434.91;;;13.50;68.23
9187;BME280;7273;48.902;9.410;2024-03-22T08:42:53;98433.50;;;13.52;67.85
9187;BME280;7273;48.902;9.410;2024-03-22T08:45:18;98433.75;;;13.56;67.65
9187;BME280;7273;48.902;9.410;2024-03-22T08:47:44;98431.03;;;13.56;67.44
9187;BME280;7273;48.902;9.410;2024-03-22T08:50:12;98438.28;;;13.66;67.67
9187;BME280;7273;48.902;9.410;2024-03-22T08:52:38;98438.84;;;13.63;67.47
9187;BME280;7273;48.902;9.410;2024-03-22T08:55:03;98430.31;;;13.74;68.20
9187;BME280;7273;48.902;9.410;2024-03-22T08:57:31;98425.91;;;13.78;68.14
9187;BME280;7273;48.902;9.410;2024-03-22T08:59:56;98430.44;;;13.88;68.20
9187;BME280;7273;48.902;9.410;2024-03-22T09:02:22;98418.94;;;13.96;68.26
9187;BME280;7273;48.902;9.410;2024-03-22T09:04:47;98418.41;;;13.94;68.40
9187;BME280;7273;48.902;9.410;2024-03-22T09:07:12;98417.47;;;14.03;68.27
9187;BME280;7273;48.902;9.410;2024-03-22T09:09:38;98425.06;;;13.83;67.89
9187;BME280;7273;48.902;9.410;2024-03-22T09:12:03;98424.53;;;13.81;68.19
9187;BME280;7273;48.902;9.410;2024-03-22T09:14:28;98417.66;;;13.88;68.22
9187;BME280;7273;48.902;9.410;2024-03-22T09:16:54;98415.63;;;13.99;67.77
9187;BME280;7273;48.902;9.410;2024-03-22T09:19:19;98413.59;;;14.09;68.17
9187;BME280;7273;48.902;9.410;2024-03-22T09:21:45;98411.69;;;14.10;67.96
9187;BME280;7273;48.902;9.410;2024-03-22T09:24:10;98407.97;;;14.24;68.19
9187;BME280;7273;48.902;9.410;2024-03-22T09:26:35;98397.44;;;14.41;67.83
9187;BME280;7273;48.902;9.410;2024-03-22T09:29:01;98404.94;;;14.49;67.87
9187;BME280;7273;48.902;9.410;2024-03-22T09:31:26;98391.63;;;14.66;67.82
9187;BME280;7273;48.902;9.410;2024-03-22T09:33:52;98394.78;;;14.73;67.73
9187;BME280;7273;48.902;9.410;2024-03-22T09:36:18;98382.47;;;14.95;67.55
9187;BME280;7273;48.902;9.410;2024-03-22T09:38:43;98391.53;;;15.09;67.47
9187;BME280;7273;48.902;9.410;2024-03-22T09:41:08;98388.34;;;15.20;67.41
9187;BME280;7273;48.902;9.410;2024-03-22T09:43:34;98391.19;;;15.29;67.46
9187;BME280;7273;48.902;9.410;2024-03-22T09:46:00;98389.09;;;15.07;66.96
9187;BME280;7273;48.902;9.410;2024-03-22T09:48:28;98379.03;;;15.40;66.80
9187;BME280;7273;48.902;9.410;2024-03-22T09:50:54;98382.19;;;15.60;66.58
9187;BME280;7273;48.902;9.410;2024-03-22T09:53:21;98375.53;;;15.80;66.47
9187;BME280;7273;48.902;9.410;2024-03-22T09:55:48;98374.03;;;15.74;66.61
9187;BME280;7273;48.902;9.410;2024-03-22T09:58:14;98374.06;;;15.87;66.46
9187;BME280;7273;48.902;9.410;2024-03-22T10:00:42;98368.88;;;15.99;65.99
9187;BME280;7273;48.902;9.410;2024-03-22T10:03:08;98362.03;;;16.02;66.06
9187;BME280;7273;48.902;9.410;2024-03-22T10:05:35;98356.47;;;16.07;66.07
9187;BME280;7273;48.902;9.410;2024-03-22T10:08:00;98354.50;;;16.21;66.19
9187;BME280;7273;48.902;9.410;2024-03-22T10:10:27;98345.94;;;16.14;65.66
9187;BME280;7273;48.902;9.410;2024-03-22T10:12:52;98345.81;;;16.33;65.80
9187;BME280;7273;48.902;9.410;2024-03-22T10:15:20;98334.91;;;16.46;63.56
9187;BME280;7273;48.902;9.410;2024-03-22T10:17:46;98340.56;;;16.50;65.38
9187;BME280;7273;48.902;9.410;2024-03-22T10:20:15;98329.44;;;16.33;64.62
9187;BME280;7273;48.902;9.410;2024-03-22T10:22:47;98329.00;;;16.39;64.68
9187;BME280;7273;48.902;9.410;2024-03-22T10:25:13;98327.56;;;16.42;64.20
9187;BME280;7273;48.902;9.410;2024-03-22T10:27:39;98326.59;;;16.51;64.80
9187;BME280;7273;48.902;9.410;2024-03-22T10:30:08;98322.41;;;16.54;64.47
9187;BME280;7273;48.902;9.410;2024-03-22T10:32:34;98317.47;;;16.42;63.90
9187;BME280;7273;48.902;9.410;2024-03-22T10:35:02;98315.66;;;16.51;64.79
9187;BME280;7273;48.902;9.410;2024-03-22T10:37:32;98313.28;;;16.58;64.47
9187;BME280;7273;48.902;9.410;2024-03-22T10:39:58;98300.22;;;16.69;64.38
9187;BME280;7273;48.902;9.410;2024-03-22T10:42:26;98298.31;;;16.69;64.64
9187;BME280;7273;48.902;9.410;2024-03-22T10:44:51;98292.28;;;16.81;64.44
9187;BME280;7273;48.902;9.410;2024-03-22T10:47:18;98294.13;;;16.94;64.28
9187;BME280;7273;48.902;9.410;2024-03-22T10:49:46;98281.19;;;16.86;64.07
9187;BME280;7273;48.902;9.410;2024-03-22T10:52:13;98277.56;;;16.90;63.82
9187;BME280;7273;48.902;9.410;2024-03-22T10:54:40;98280.63;;;17.19;63.69
9187;BME280;7273;48.902;9.410;2024-03-22T10:57:12;98276.56;;;17.17;63.02
9187;BME280;7273;48.902;9.410;2024-03-22T10:59:41;98258.06;;;17.44;63.01
9187;BME280;7273;48.902;9.410;2024-03-22T11:02:06;98258.78;;;17.59;62.81
9187;BME280;7273;48.902;9.410;2024-03-22T11:04:35;98253.59;;;17.49;62.13
9187;BME280;7273;48.902;9.410;2024-03-22T11:07:00;98246.13;;;17.80;62.41
9187;BME280;7273;48.902;9.410;2024-03-22T11:09:27;98245.97;;;17.85;61.66
9187;BME280;7273;48.902;9.410;2024-03-22T11:11:54;98244.56;;;18.30;61.82
9187;BME280;7273;48.902;9.410;2024-03-22T11:14:20;98234.75;;;18.71;61.06
9187;BME280;7273;48.902;9.410;2024-03-22T11:16:48;98236.72;;;19.17;61.65
9187;BME280;7273;48.902;9.410;2024-03-22T11:19:13;98233.84;;;19.14;61.66
9187;BME280;7273;48.902;9.410;2024-03-22T11:21:38;98231.69;;;19.36;61.89
9187;BME280;7273;48.902;9.410;2024-03-22T11:24:05;98234.69;;;19.52;61.04
9187;BME280;7273;48.902;9.410;2024-03-22T11:26:31;98230.84;;;19.82;60.61
9187;BME280;7273;48.902;9.410;2024-03-22T11:28:58;98233.59;;;20.02;61.17
9187;BME280;7273;48.902;9.410;2024-03-22T11:31:23;98223.00;;;19.92;62.38
9187;BME280;7273;48.902;9.410;2024-03-22T11:33:53;98222.66;;;19.94;61.96
9187;BME280;7273;48.902;9.410;2024-03-22T11:36:18;98217.53;;;19.63;62.05
9187;BME280;7273;48.902;9.410;2024-03-22T11:38:44;98216.69;;;19.92;62.52
9187;BME280;7273;48.902;9.410;2024-03-22T11:41:10;98209.16;;;20.10;61.75
9187;BME280;7273;48.902;9.410;2024-03-22T11:43:37;98206.34;;;20.18;61.83
9187;BME280;7273;48.902;9.410;2024-03-22T11:46:03;98198.94;;;20.19;62.22
9187;BME280;7273;48.902;9.410;2024-03-22T11:48:28;98193.91;;;20.21;62.60
9187;BME280;7273;48.902;9.410;2024-03-22T11:50:54;98190.16;;;20.25;62.51
9187;BME280;7273;48.902;9.410;2024-03-22T11:53:21;98186.91;;;20.02;62.10
9187;BME280;7273;48.902;9.410;2024-03-22T11:55:46;98178.34;;;19.83;62.30
9187;BME280;7273;48.902;9.410;2024-03-22T11:58:14;98182.69;;;20.05;62.71
9187;BME280;7273;48.902;9.410;2024-03-22T12:00:39;98177.66;;;19.86;62.27
9187;BME280;7273;48.902;9.410;2024-03-22T12:03:05;98182.25;;;19.74;61.62
9187;BME280;7273;48.902;9.410;2024-03-22T12:05:33;98169.72;;;19.64;61.48
9187;BME280;7273;48.902;9.410;2024-03-22T12:07:58;98162.03;;;19.29;61.02
9187;BME280;7273;48.902;9.410;2024-03-22T12:10:24;98158.31;;;19.25;61.80
9187;BME280;7273;48.902;9.410;2024-03-22T12:12:49;98151.84;;;18.92;62.14
9187;BME280;7273;48.902;9.410;2024-03-22T12:15:15;98135.06;;;18.93;61.32
9187;BME280;7273;48.902;9.410;2024-03-22T12:17:40;98137.47;;;18.95;61.13
9187;BME280;7273;48.902;9.410;2024-03-22T12:20:09;98128.41;;;19.03;61.23
9187;BME280;7273;48.902;9.410;2024-03-22T12:22:34;98132.13;;;19.07;61.25
9187;BME280;7273;48.902;9.410;2024-03-22T12:25:00;98118.91;;;19.00;60.79
9187;BME280;7273;48.902;9.410;2024-03-22T12:27:25;98114.56;;;18.99;60.80
9187;BME280;7273;48.902;9.410;2024-03-22T12:29:51;98111.56;;;18.84;60.97
9187;BME280;7273;48.902;9.410;2024-03-22T12:32:16;98102.47;;;18.62;59.73
9187;BME280;7273;48.902;9.410;2024-03-22T12:34:42;98101.16;;;18.68;59.81
9187;BME280;7273;48.902;9.410;2024-03-22T12:37:08;98093.91;;;18.64;59.93
9187;BME280;7273;48.902;9.410;2024-03-22T12:39:34;98098.06;;;18.70;59.92
9187;BME280;7273;48.902;9.410;2024-03-22T12:42:00;98101.31;;;18.63;59.34
9187;BME280;7273;48.902;9.410;2024-03-22T12:44:25;98083.19;;;18.80;59.63
9187;BME280;7273;48.902;9.410;2024-03-22T12:46:51;98079.72;;;18.62;59.31
9187;BME280;7273;48.902;9.410;2024-03-22T12:49:17;98080.16;;;18.72;59.26
9187;BME280;7273;48.902;9.410;2024-03-22T12:51:42;98058.56;;;18.71;59.15
9187;BME280;7273;48.902;9.410;2024-03-22T12:54:08;98060.19;;;18.72;59.47
9187;BME280;7273;48.902;9.410;2024-03-22T12:56:34;98056.69;;;18.54;58.98
9187;BME280;7273;48.902;9.410;2024-03-22T12:58:59;98050.41;;;18.62;59.10
9187;BME280;7273;48.902;9.410;2024-03-22T13:01:25;98039.47;;;18.54;59.16
9187;BME280;7273;48.902;9.410;2024-03-22T13:03:50;98041.75;;;18.52;58.91
9187;BME280;7273;48.902;9.410;2024-03-22T13:06:15;98030.94;;;18.38;58.88
9187;BME280;7273;48.902;9.410;2024-03-22T13:08:41;98029.22;;;18.42;59.17
9187;BME280;7273;48.902;9.410;2024-03-22T13:11:07;98025.97;;;18.49;59.35
9187;BME280;7273;48.902;9.410;2024-03-22T13:13:35;98024.63;;;18.55;59.27
9187;BME280;7273;48.902;9.410;2024-03-22T13:16:00;98013.34;;;18.56;59.10
9187;BME280;7273;48.902;9.410;2024-03-22T13:18:30;98006.78;;;18.49;59.17
9187;BME280;7273;48.902;9.410;2024-03-22T13:20:56;98010.13;;;18.54;58.84